sensor_id;sensor_type;location;lat;lon;timestamp;P1;durP1;ratioP1;P2;durP2;ratioP2
5519;SDS011;2782;52.362;10.012;2023-04-25T00:00:07;14.55;;;7.47;;
5519;SDS011;2782;52.362;10.012;2023-04-25T00:01:08;15.38;;;7.63;;
5519;SDS011;2782;52.362;10.012;2023-04-25T00:02:14;18.67;;;7.35;;
5519;SDS011;2782;52.362;10.012;2023-04-25T00:03:15;14.57;;;6.68;;
5519;SDS011;2782;52.362;10.012;2023-04-25T00:04:18;16.40;;;7.18;;
5519;SDS011;2782;52.362;10.012;2023-04-25T00:05:19;16.90;;;7.87;;
5519;SDS011;2782;52.362;10.012;2023-04-25T00:06:24;15.10;;;7.07;;
5519;SDS011;2782;52.362;10.012;2023-04-25T00:07:26;15.13;;;7.68;;
5519;SDS011;2782;52.362;10.012;2023-04-25T00:08:28;15.73;;;7.28;;
5519;SDS011;2782;52.362;10.012;2023-04-25T00:09:29;13.02;;;6.53;;
5519;SDS011;2782;52.362;10.012;2023-04-25T00:10:31;13.07;;;6.65;;
5519;SDS011;2782;52.362;10.012;2023-04-25T00:11:31;13.70;;;6.67;;
5519;SDS011;2782;52.362;10.012;2023-04-25T00:12:33;15.02;;;6.30;;
5519;SDS011;2782;52.362;10.012;2023-04-25T00:13:34;15.40;;;7.03;;
5519;SDS011;2782;52.362;10.012;2023-04-25T00:14:35;14.60;;;6.72;;
5519;SDS011;2782;52.362;10.012;2023-04-25T00:15:36;16.20;;;7.10;;
5519;SDS011;2782;52.362;10.012;2023-04-25T00:16:38;12.07;;;6.70;;
5519;SDS011;2782;52.362;10.012;2023-04-25T00:17:42;14.73;;;6.38;;
5519;SDS011;2782;52.362;10.012;2023-04-25T00:18:45;12.80;;;7.15;;
5519;SDS011;2782;52.362;10.012;2023-04-25T00:19:51;14.82;;;6.70;;
5519;SDS011;2782;52.362;10.012;2023-04-25T00:20:52;12.25;;;6.60;;
5519;SDS011;2782;52.362;10.012;2023-04-25T00:21:53;13.83;;;6.53;;
5519;SDS011;2782;52.362;10.012;2023-04-25T00:22:55;14.93;;;6.25;;
5519;SDS011;2782;52.362;10.012;2023-04-25T00:23:55;10.77;;;6.10;;
5519;SDS011;2782;52.362;10.012;2023-04-25T00:24:57;19.48;;;7.43;;
5519;SDS011;2782;52.362;10.012;2023-04-25T00:26:00;11.98;;;7.10;;
5519;SDS011;2782;52.362;10.012;2023-04-25T00:27:02;15.23;;;6.55;;
5519;SDS011;2782;52.362;10.012;2023-04-25T00:28:02;11.17;;;6.20;;
5519;SDS011;2782;52.362;10.012;2023-04-25T00:29:04;12.25;;;5.90;;
5519;SDS011;2782;52.362;10.012;2023-04-25T00:30:05;12.10;;;5.43;;
5519;SDS011;2782;52.362;10.012;2023-04-25T00:31:07;9.93;;;6.30;;
5519;SDS011;2782;52.362;10.012;2023-04-25T00:32:08;11.40;;;5.63;;
5519;SDS011;2782;52.362;10.012;2023-04-25T00:33:11;12.05;;;6.30;;
5519;SDS011;2782;52.362;10.012;2023-04-25T00:34:12;13.93;;;5.90;;
5519;SDS011;2782;52.362;10.012;2023-04-25T00:35:13;11.87;;;6.00;;
5519;SDS011;2782;52.362;10.012;2023-04-25T00:36:15;13.10;;;6.15;;
5519;SDS011;2782;52.362;10.012;2023-04-25T00:37:17;13.43;;;6.47;;
5519;SDS011;2782;52.362;10.012;2023-04-25T00:38:19;12.40;;;6.35;;
5519;SDS011;2782;52.362;10.012;2023-04-25T00:39:20;8.87;;;5.40;;
5519;SDS011;2782;52.362;10.012;2023-04-25T00:40:21;12.35;;;5.35;;
5519;SDS011;2782;52.362;10.012;2023-04-25T00:41:22;11.87;;;6.03;;
5519;SDS011;2782;52.362;10.012;2023-04-25T00:42:26;12.43;;;5.85;;
5519;SDS011;2782;52.362;10.012;2023-04-25T00:43:27;15.10;;;5.80;;
5519;SDS011;2782;52.362;10.012;2023-04-25T00:44:31;11.32;;;5.75;;
5519;SDS011;2782;52.362;10.012;2023-04-25T00:45:32;14.45;;;6.50;;
5519;SDS011;2782;52.362;10.012;2023-04-25T00:46:38;10.60;;;5.75;;
5519;SDS011;2782;52.362;10.012;2023-04-25T00:47:39;11.67;;;5.87;;
5519;SDS011;2782;52.362;10.012;2023-04-25T00:48:42;11.80;;;6.00;;
5519;SDS011;2782;52.362;10.012;2023-04-25T00:49:43;10.75;;;5.60;;
5519;SDS011;2782;52.362;10.012;2023-04-25T00:50:45;9.00;;;5.63;;
5519;SDS011;2782;52.362;10.012;2023-04-25T00:51:51;11.82;;;5.20;;
5519;SDS011;2782;52.362;10.012;2023-04-25T00:52:53;11.77;;;5.30;;
5519;SDS011;2782;52.362;10.012;2023-04-25T00:53:54;10.73;;;5.72;;
5519;SDS011;2782;52.362;10.012;2023-04-25T00:54:56;9.82;;;5.43;;
5519;SDS011;2782;52.362;10.012;2023-04-25T00:55:56;10.13;;;4.93;;
5519;SDS011;2782;52.362;10.012;2023-04-25T00:56:59;13.20;;;5.43;;
5519;SDS011;2782;52.362;10.012;2023-04-25T00:58:01;11.15;;;5.05;;
5519;SDS011;2782;52.362;10.012;2023-04-25T00:59:02;14.07;;;5.90;;
5519;SDS011;2782;52.362;10.012;2023-04-25T01:00:04;10.13;;;5.30;;
5519;SDS011;2782;52.362;10.012;2023-04-25T01:01:09;10.25;;;5.65;;
5519;SDS011;2782;52.362;10.012;2023-04-25T01:02:10;13.75;;;5.57;;
5519;SDS011;2782;52.362;10.012;2023-04-25T01:03:12;9.93;;;4.97;;
5519;SDS011;2782;52.362;10.012;2023-04-25T01:04:14;9.50;;;5.00;;
5519;SDS011;2782;52.362;10.012;2023-04-25T01:05:16;7.78;;;4.40;;
5519;SDS011;2782;52.362;10.012;2023-04-25T01:06:18;9.80;;;4.97;;
5519;SDS011;2782;52.362;10.012;2023-04-25T01:07:20;10.15;;;4.68;;
5519;SDS011;2782;52.362;10.012;2023-04-25T01:08:21;11.90;;;5.00;;
5519;SDS011;2782;52.362;10.012;2023-04-25T01:09:25;10.38;;;4.60;;
5519;SDS011;2782;52.362;10.012;2023-04-25T01:10:26;9.37;;;4.50;;
5519;SDS011;2782;52.362;10.012;2023-04-25T01:11:27;12.70;;;5.38;;
5519;SDS011;2782;52.362;10.012;2023-04-25T01:12:29;8.63;;;4.03;;
5519;SDS011;2782;52.362;10.012;2023-04-25T01:13:30;11.20;;;5.35;;
5519;SDS011;2782;52.362;10.012;2023-04-25T01:14:32;8.20;;;4.65;;
5519;SDS011;2782;52.362;10.012;2023-04-25T01:15:33;10.13;;;4.65;;
5519;SDS011;2782;52.362;10.012;2023-04-25T01:16:35;9.75;;;5.57;;
5519;SDS011;2782;52.362;10.012;2023-04-25T01:17:37;10.50;;;4.30;;
5519;SDS011;2782;52.362;10.012;2023-04-25T01:18:39;8.55;;;4.60;;
5519;SDS011;2782;52.362;10.012;2023-04-25T01:19:43;7.68;;;4.00;;
5519;SDS011;2782;52.362;10.012;2023-04-25T01:20:46;7.82;;;4.18;;
5519;SDS011;2782;52.362;10.012;2023-04-25T01:21:52;7.85;;;4.15;;
5519;SDS011;2782;52.362;10.012;2023-04-25T01:22:53;11.02;;;5.18;;
5519;SDS011;2782;52.362;10.012;2023-04-25T01:23:56;9.52;;;4.38;;
5519;SDS011;2782;52.362;10.012;2023-04-25T01:24:57;8.80;;;4.10;;
5519;SDS011;2782;52.362;10.012;2023-04-25T01:25:59;6.28;;;4.03;;
5519;SDS011;2782;52.362;10.012;2023-04-25T01:27:01;8.57;;;4.40;;
5519;SDS011;2782;52.362;10.012;2023-04-25T01:28:03;9.63;;;4.78;;
5519;SDS011;2782;52.362;10.012;2023-04-25T01:29:05;8.70;;;4.03;;
5519;SDS011;2782;52.362;10.012;2023-04-25T01:30:08;10.07;;;4.15;;
5519;SDS011;2782;52.362;10.012;2023-04-25T01:31:09;9.57;;;4.28;;
5519;SDS011;2782;52.362;10.012;2023-04-25T01:32:12;6.65;;;4.10;;
5519;SDS011;2782;52.362;10.012;2023-04-25T01:33:14;12.57;;;4.22;;
5519;SDS011;2782;52.362;10.012;2023-04-25T01:34:16;7.43;;;4.50;;
5519;SDS011;2782;52.362;10.012;2023-04-25T01:35:17;10.87;;;4.87;;
5519;SDS011;2782;52.362;10.012;2023-04-25T01:36:19;8.07;;;4.82;;
5519;SDS011;2782;52.362;10.012;2023-04-25T01:37:22;7.90;;;3.85;;
5519;SDS011;2782;52.362;10.012;2023-04-25T01:38:24;7.18;;;4.25;;
5519;SDS011;2782;52.362;10.012;2023-04-25T01:39:25;8.97;;;4.73;;
5519;SDS011;2782;52.362;10.012;2023-04-25T01:40:27;9.95;;;4.20;;
5519;SDS011;2782;52.362;10.012;2023-04-25T01:41:28;5.00;;;3.30;;
5519;SDS011;2782;52.362;10.012;2023-04-25T01:42:30;9.90;;;4.32;;
5519;SDS011;2782;52.362;10.012;2023-04-25T01:43:31;12.13;;;4.33;;
5519;SDS011;2782;52.362;10.012;2023-04-25T01:44:32;12.35;;;4.68;;
5519;SDS011;2782;52.362;10.012;2023-04-25T01:45:33;6.87;;;4.40;;
5519;SDS011;2782;52.362;10.012;2023-04-25T01:46:36;8.25;;;4.07;;
5519;SDS011;2782;52.362;10.012;2023-04-25T01:47:37;7.70;;;3.83;;
5519;SDS011;2782;52.362;10.012;2023-04-25T01:48:39;9.82;;;4.32;;
5519;SDS011;2782;52.362;10.012;2023-04-25T01:49:40;6.27;;;3.33;;
5519;SDS011;2782;52.362;10.012;2023-04-25T01:50:41;8.82;;;4.25;;
5519;SDS011;2782;52.362;10.012;2023-04-25T01:51:42;8.20;;;4.37;;
5519;SDS011;2782;52.362;10.012;2023-04-25T01:52:46;6.40;;;3.75;;
5519;SDS011;2782;52.362;10.012;2023-04-25T01:53:46;6.35;;;3.75;;
5519;SDS011;2782;52.362;10.012;2023-04-25T01:54:48;7.18;;;3.70;;
5519;SDS011;2782;52.362;10.012;2023-04-25T01:55:50;7.72;;;3.83;;
5519;SDS011;2782;52.362;10.012;2023-04-25T01:56:52;6.55;;;3.63;;
5519;SDS011;2782;52.362;10.012;2023-04-25T01:57:53;6.37;;;4.10;;
5519;SDS011;2782;52.362;10.012;2023-04-25T01:58:55;6.82;;;3.40;;
5519;SDS011;2782;52.362;10.012;2023-04-25T01:59:57;6.07;;;3.90;;
5519;SDS011;2782;52.362;10.012;2023-04-25T02:04:17;7.32;;;4.20;;
5519;SDS011;2782;52.362;10.012;2023-04-25T02:05:19;5.18;;;3.20;;
5519;SDS011;2782;52.362;10.012;2023-04-25T02:06:20;6.78;;;3.35;;
5519;SDS011;2782;52.362;10.012;2023-04-25T02:07:22;9.88;;;4.00;;
5519;SDS011;2782;52.362;10.012;2023-04-25T02:08:24;7.40;;;4.10;;
5519;SDS011;2782;52.362;10.012;2023-04-25T02:09:26;5.00;;;3.03;;
5519;SDS011;2782;52.362;10.012;2023-04-25T02:10:26;6.40;;;3.20;;
5519;SDS011;2782;52.362;10.012;2023-04-25T02:11:28;5.15;;;3.08;;
5519;SDS011;2782;52.362;10.012;2023-04-25T02:12:29;5.00;;;3.73;;
5519;SDS011;2782;52.362;10.012;2023-04-25T02:13:30;7.90;;;3.95;;
5519;SDS011;2782;52.362;10.012;2023-04-25T02:14:31;6.57;;;3.00;;
5519;SDS011;2782;52.362;10.012;2023-04-25T02:15:33;5.25;;;3.13;;
5519;SDS011;2782;52.362;10.012;2023-04-25T02:16:33;7.40;;;4.20;;
5519;SDS011;2782;52.362;10.012;2023-04-25T02:17:35;5.80;;;3.17;;
5519;SDS011;2782;52.362;10.012;2023-04-25T02:18:36;6.63;;;3.33;;
5519;SDS011;2782;52.362;10.012;2023-04-25T02:19:39;7.65;;;3.92;;
5519;SDS011;2782;52.362;10.012;2023-04-25T02:20:39;6.23;;;2.77;;
5519;SDS011;2782;52.362;10.012;2023-04-25T02:21:41;6.40;;;3.67;;
5519;SDS011;2782;52.362;10.012;2023-04-25T02:22:44;6.13;;;3.23;;
5519;SDS011;2782;52.362;10.012;2023-04-25T02:23:47;7.00;;;3.55;;
5519;SDS011;2782;52.362;10.012;2023-04-25T02:24:49;7.20;;;3.33;;
5519;SDS011;2782;52.362;10.012;2023-04-25T02:25:51;5.65;;;3.28;;
5519;SDS011;2782;52.362;10.012;2023-04-25T02:26:52;6.45;;;3.10;;
5519;SDS011;2782;52.362;10.012;2023-04-25T02:27:55;4.85;;;2.80;;
5519;SDS011;2782;52.362;10.012;2023-04-25T02:28:56;7.07;;;3.70;;
5519;SDS011;2782;52.362;10.012;2023-04-25T02:29:58;6.35;;;3.00;;
5519;SDS011;2782;52.362;10.012;2023-04-25T02:30:59;5.60;;;3.50;;
5519;SDS011;2782;52.362;10.012;2023-04-25T02:32:00;4.18;;;2.90;;
5519;SDS011;2782;52.362;10.012;2023-04-25T02:33:01;7.10;;;2.57;;
5519;SDS011;2782;52.362;10.012;2023-04-25T02:34:02;6.00;;;3.13;;
5519;SDS011;2782;52.362;10.012;2023-04-25T02:35:05;4.50;;;2.70;;
5519;SDS011;2782;52.362;10.012;2023-04-25T02:36:07;6.10;;;2.90;;
5519;SDS011;2782;52.362;10.012;2023-04-25T02:37:08;6.60;;;3.43;;
5519;SDS011;2782;52.362;10.012;2023-04-25T02:38:10;7.82;;;4.18;;
5519;SDS011;2782;52.362;10.012;2023-04-25T02:39:12;5.83;;;2.90;;
5519;SDS011;2782;52.362;10.012;2023-04-25T02:40:14;5.82;;;3.00;;
5519;SDS011;2782;52.362;10.012;2023-04-25T02:41:14;3.43;;;2.30;;
5519;SDS011;2782;52.362;10.012;2023-04-25T02:42:16;4.25;;;3.03;;
5519;SDS011;2782;52.362;10.012;2023-04-25T02:43:17;5.50;;;3.30;;
5519;SDS011;2782;52.362;10.012;2023-04-25T02:44:20;7.70;;;3.15;;
5519;SDS011;2782;52.362;10.012;2023-04-25T02:45:21;5.10;;;3.20;;
5519;SDS011;2782;52.362;10.012;2023-04-25T02:46:22;5.35;;;2.40;;
5519;SDS011;2782;52.362;10.012;2023-04-25T02:47:23;4.80;;;3.37;;
5519;SDS011;2782;52.362;10.012;2023-04-25T02:48:25;4.97;;;2.70;;
5519;SDS011;2782;52.362;10.012;2023-04-25T02:49:25;4.50;;;2.50;;
5519;SDS011;2782;52.362;10.012;2023-04-25T02:50:27;4.43;;;3.30;;
5519;SDS011;2782;52.362;10.012;2023-04-25T02:51:28;4.77;;;2.80;;
5519;SDS011;2782;52.362;10.012;2023-04-25T02:52:30;3.95;;;2.75;;
5519;SDS011;2782;52.362;10.012;2023-04-25T02:53:30;4.80;;;2.60;;
5519;SDS011;2782;52.362;10.012;2023-04-25T02:54:33;4.72;;;2.42;;
5519;SDS011;2782;52.362;10.012;2023-04-25T02:55:34;4.97;;;3.10;;
5519;SDS011;2782;52.362;10.012;2023-04-25T02:56:36;4.80;;;2.40;;
5519;SDS011;2782;52.362;10.012;2023-04-25T02:57:36;5.13;;;3.03;;
5519;SDS011;2782;52.362;10.012;2023-04-25T02:58:38;4.15;;;2.40;;
5519;SDS011;2782;52.362;10.012;2023-04-25T02:59:39;8.38;;;2.88;;
5519;SDS011;2782;52.362;10.012;2023-04-25T03:00:41;4.22;;;2.55;;
5519;SDS011;2782;52.362;10.012;2023-04-25T03:01:41;5.30;;;2.63;;
5519;SDS011;2782;52.362;10.012;2023-04-25T03:02:43;4.63;;;2.80;;
5519;SDS011;2782;52.362;10.012;2023-04-25T03:03:43;5.67;;;2.53;;
5519;SDS011;2782;52.362;10.012;2023-04-25T03:04:45;4.82;;;3.10;;
5519;SDS011;2782;52.362;10.012;2023-04-25T03:05:46;4.93;;;2.50;;
5519;SDS011;2782;52.362;10.012;2023-04-25T03:06:48;5.18;;;2.03;;
5519;SDS011;2782;52.362;10.012;2023-04-25T03:07:49;4.53;;;2.45;;
5519;SDS011;2782;52.362;10.012;2023-04-25T03:08:51;3.70;;;2.47;;
5519;SDS011;2782;52.362;10.012;2023-04-25T03:09:53;3.57;;;2.43;;
5519;SDS011;2782;52.362;10.012;2023-04-25T03:10:55;4.15;;;2.58;;
5519;SDS011;2782;52.362;10.012;2023-04-25T03:11:57;4.90;;;2.33;;
5519;SDS011;2782;52.362;10.012;2023-04-25T03:12:58;3.97;;;2.53;;
5519;SDS011;2782;52.362;10.012;2023-04-25T03:13:59;4.87;;;2.70;;
5519;SDS011;2782;52.362;10.012;2023-04-25T03:15:01;3.28;;;2.20;;
5519;SDS011;2782;52.362;10.012;2023-04-25T03:16:02;4.35;;;2.13;;
5519;SDS011;2782;52.362;10.012;2023-04-25T03:17:04;3.15;;;1.88;;
5519;SDS011;2782;52.362;10.012;2023-04-25T03:18:04;5.40;;;2.60;;
5519;SDS011;2782;52.362;10.012;2023-04-25T03:19:06;4.25;;;2.72;;
5519;SDS011;2782;52.362;10.012;2023-04-25T03:20:07;4.10;;;2.20;;
5519;SDS011;2782;52.362;10.012;2023-04-25T03:21:09;3.58;;;2.10;;
5519;SDS011;2782;52.362;10.012;2023-04-25T03:22:10;4.43;;;2.30;;
5519;SDS011;2782;52.362;10.012;2023-04-25T03:23:12;3.70;;;2.50;;
5519;SDS011;2782;52.362;10.012;2023-04-25T03:24:12;3.63;;;2.20;;
5519;SDS011;2782;52.362;10.012;2023-04-25T03:25:16;3.55;;;2.20;;
5519;SDS011;2782;52.362;10.012;2023-04-25T03:26:17;4.50;;;2.38;;
5519;SDS011;2782;52.362;10.012;2023-04-25T03:27:18;4.03;;;1.90;;
5519;SDS011;2782;52.362;10.012;2023-04-25T03:28:20;3.88;;;2.70;;
5519;SDS011;2782;52.362;10.012;2023-04-25T03:29:21;3.85;;;2.33;;
5519;SDS011;2782;52.362;10.012;2023-04-25T03:30:24;3.50;;;2.40;;
5519;SDS011;2782;52.362;10.012;2023-04-25T03:31:26;6.25;;;2.20;;
5519;SDS011;2782;52.362;10.012;2023-04-25T03:32:26;4.20;;;2.40;;
5519;SDS011;2782;52.362;10.012;2023-04-25T03:33:28;4.38;;;1.88;;
5519;SDS011;2782;52.362;10.012;2023-04-25T03:34:29;4.10;;;2.00;;
5519;SDS011;2782;52.362;10.012;2023-04-25T03:35:30;3.30;;;1.95;;
5519;SDS011;2782;52.362;10.012;2023-04-25T03:36:31;4.30;;;2.60;;
5519;SDS011;2782;52.362;10.012;2023-04-25T03:37:32;4.28;;;2.08;;
5519;SDS011;2782;52.362;10.012;2023-04-25T03:38:33;3.90;;;2.13;;
5519;SDS011;2782;52.362;10.012;2023-04-25T03:39:34;3.38;;;1.80;;
5519;SDS011;2782;52.362;10.012;2023-04-25T03:40:37;4.20;;;1.90;;
5519;SDS011;2782;52.362;10.012;2023-04-25T03:41:38;3.03;;;2.05;;
5519;SDS011;2782;52.362;10.012;2023-04-25T03:42:39;4.73;;;2.50;;
5519;SDS011;2782;52.362;10.012;2023-04-25T03:43:41;3.35;;;1.90;;
5519;SDS011;2782;52.362;10.012;2023-04-25T03:44:41;4.37;;;2.10;;
5519;SDS011;2782;52.362;10.012;2023-04-25T03:45:43;3.20;;;2.10;;
5519;SDS011;2782;52.362;10.012;2023-04-25T03:46:43;4.70;;;2.33;;
5519;SDS011;2782;52.362;10.012;2023-04-25T03:47:45;3.92;;;1.75;;
5519;SDS011;2782;52.362;10.012;2023-04-25T03:48:45;3.47;;;1.70;;
5519;SDS011;2782;52.362;10.012;2023-04-25T03:49:47;2.00;;;1.52;;
5519;SDS011;2782;52.362;10.012;2023-04-25T03:50:49;4.40;;;2.13;;
5519;SDS011;2782;52.362;10.012;2023-04-25T03:51:51;3.65;;;1.88;;
5519;SDS011;2782;52.362;10.012;2023-04-25T03:52:51;2.73;;;1.50;;
5519;SDS011;2782;52.362;10.012;2023-04-25T03:53:53;2.78;;;1.90;;
5519;SDS011;2782;52.362;10.012;2023-04-25T03:54:53;3.53;;;1.97;;
5519;SDS011;2782;52.362;10.012;2023-04-25T03:55:56;2.40;;;1.75;;
5519;SDS011;2782;52.362;10.012;2023-04-25T03:56:57;4.30;;;2.20;;
5519;SDS011;2782;52.362;10.012;2023-04-25T03:57:59;3.95;;;1.63;;
5519;SDS011;2782;52.362;10.012;2023-04-25T03:58:59;4.70;;;1.90;;
5519;SDS011;2782;52.362;10.012;2023-04-25T04:00:01;2.78;;;1.85;;
5519;SDS011;2782;52.362;10.012;2023-04-25T04:01:04;2.05;;;1.50;;
5519;SDS011;2782;52.362;10.012;2023-04-25T04:02:07;3.53;;;1.60;;
5519;SDS011;2782;52.362;10.012;2023-04-25T04:03:08;3.13;;;1.67;;
5519;SDS011;2782;52.362;10.012;2023-04-25T04:04:10;3.72;;;1.50;;
5519;SDS011;2782;52.362;10.012;2023-04-25T04:05:11;2.47;;;1.50;;
5519;SDS011;2782;52.362;10.012;2023-04-25T04:06:13;2.40;;;1.80;;
5519;SDS011;2782;52.362;10.012;2023-04-25T04:07:14;3.38;;;1.70;;
5519;SDS011;2782;52.362;10.012;2023-04-25T04:08:16;2.50;;;1.35;;
5519;SDS011;2782;52.362;10.012;2023-04-25T04:09:17;2.67;;;1.70;;
5519;SDS011;2782;52.362;10.012;2023-04-25T04:10:19;2.33;;;1.42;;
5519;SDS011;2782;52.362;10.012;2023-04-25T04:11:21;3.20;;;1.80;;
5519;SDS011;2782;52.362;10.012;2023-04-25T04:12:23;2.08;;;1.30;;
5519;SDS011;2782;52.362;10.012;2023-04-25T04:13:25;2.13;;;1.70;;
5519;SDS011;2782;52.362;10.012;2023-04-25T04:14:27;3.45;;;1.80;;
5519;SDS011;2782;52.362;10.012;2023-04-25T04:15:28;2.30;;;1.67;;
5519;SDS011;2782;52.362;10.012;2023-04-25T04:16:32;3.58;;;1.40;;
5519;SDS011;2782;52.362;10.012;2023-04-25T04:17:33;3.43;;;1.93;;
5519;SDS011;2782;52.362;10.012;2023-04-25T04:18:35;3.15;;;1.48;;
5519;SDS011;2782;52.362;10.012;2023-04-25T04:19:36;2.43;;;1.60;;
5519;SDS011;2782;52.362;10.012;2023-04-25T04:20:37;3.80;;;1.67;;
5519;SDS011;2782;52.362;10.012;2023-04-25T04:21:39;2.30;;;1.50;;
5519;SDS011;2782;52.362;10.012;2023-04-25T04:22:41;2.67;;;1.35;;
5519;SDS011;2782;52.362;10.012;2023-04-25T04:23:41;1.50;;;1.13;;
5519;SDS011;2782;52.362;10.012;2023-04-25T04:24:43;3.75;;;1.63;;
5519;SDS011;2782;52.362;10.012;2023-04-25T04:25:46;2.08;;;1.20;;
5519;SDS011;2782;52.362;10.012;2023-04-25T04:26:50;2.80;;;1.42;;
5519;SDS011;2782;52.362;10.012;2023-04-25T04:27:52;2.55;;;1.27;;
5519;SDS011;2782;52.362;10.012;2023-04-25T04:28:54;2.60;;;1.50;;
5519;SDS011;2782;52.362;10.012;2023-04-25T04:29:55;3.27;;;1.80;;
5519;SDS011;2782;52.362;10.012;2023-04-25T04:30:57;3.72;;;1.55;;
5519;SDS011;2782;52.362;10.012;2023-04-25T04:31:58;2.83;;;2.00;;
5519;SDS011;2782;52.362;10.012;2023-04-25T04:33:01;2.85;;;1.60;;
5519;SDS011;2782;52.362;10.012;2023-04-25T04:34:01;2.80;;;1.00;;
5519;SDS011;2782;52.362;10.012;2023-04-25T04:35:05;1.70;;;1.35;;
5519;SDS011;2782;52.362;10.012;2023-04-25T04:36:06;6.05;;;1.77;;
5519;SDS011;2782;52.362;10.012;2023-04-25T04:37:08;1.77;;;1.08;;
5519;SDS011;2782;52.362;10.012;2023-04-25T04:38:09;3.95;;;1.40;;
5519;SDS011;2782;52.362;10.012;2023-04-25T04:39:11;4.13;;;1.88;;
5519;SDS011;2782;52.362;10.012;2023-04-25T04:40:12;5.20;;;1.37;;
5519;SDS011;2782;52.362;10.012;2023-04-25T04:41:15;3.70;;;1.63;;
5519;SDS011;2782;52.362;10.012;2023-04-25T04:42:17;1.60;;;1.33;;
5519;SDS011;2782;52.362;10.012;2023-04-25T04:43:19;2.38;;;1.40;;
5519;SDS011;2782;52.362;10.012;2023-04-25T04:44:19;3.83;;;1.70;;
5519;SDS011;2782;52.362;10.012;2023-04-25T04:45:21;1.88;;;1.50;;
5519;SDS011;2782;52.362;10.012;2023-04-25T04:46:23;3.05;;;1.52;;
5519;SDS011;2782;52.362;10.012;2023-04-25T04:47:24;11.37;;;1.93;;
5519;SDS011;2782;52.362;10.012;2023-04-25T04:48:30;7.43;;;1.60;;
5519;SDS011;2782;52.362;10.012;2023-04-25T04:49:33;3.75;;;1.77;;
5519;SDS011;2782;52.362;10.012;2023-04-25T04:50:35;3.58;;;1.38;;
5519;SDS011;2782;52.362;10.012;2023-04-25T04:51:35;2.10;;;1.20;;
5519;SDS011;2782;52.362;10.012;2023-04-25T04:52:37;5.28;;;1.40;;
5519;SDS011;2782;52.362;10.012;2023-04-25T04:53:38;5.40;;;1.52;;
5519;SDS011;2782;52.362;10.012;2023-04-25T04:54:40;5.70;;;1.77;;
5519;SDS011;2782;52.362;10.012;2023-04-25T04:55:40;4.23;;;1.33;;
5519;SDS011;2782;52.362;10.012;2023-04-25T04:56:42;5.13;;;1.65;;
5519;SDS011;2782;52.362;10.012;2023-04-25T04:57:44;4.90;;;1.20;;
5519;SDS011;2782;52.362;10.012;2023-04-25T04:58:46;2.70;;;1.30;;
5519;SDS011;2782;52.362;10.012;2023-04-25T04:59:48;5.75;;;1.55;;
5519;SDS011;2782;52.362;10.012;2023-04-25T05:00:51;2.00;;;0.93;;
5519;SDS011;2782;52.362;10.012;2023-04-25T05:01:52;3.90;;;1.30;;
5519;SDS011;2782;52.362;10.012;2023-04-25T05:02:54;4.28;;;1.50;;
5519;SDS011;2782;52.362;10.012;2023-04-25T05:03:55;3.47;;;1.60;;
5519;SDS011;2782;52.362;10.012;2023-04-25T05:05:00;3.80;;;1.20;;
5519;SDS011;2782;52.362;10.012;2023-04-25T05:06:00;2.43;;;1.30;;
5519;SDS011;2782;52.362;10.012;2023-04-25T05:07:02;2.40;;;1.63;;
5519;SDS011;2782;52.362;10.012;2023-04-25T05:08:02;2.10;;;0.93;;
5519;SDS011;2782;52.362;10.012;2023-04-25T05:09:04;2.42;;;1.25;;
5519;SDS011;2782;52.362;10.012;2023-04-25T05:10:06;2.70;;;1.40;;
5519;SDS011;2782;52.362;10.012;2023-04-25T05:11:08;6.00;;;1.77;;
5519;SDS011;2782;52.362;10.012;2023-04-25T05:12:09;4.85;;;1.52;;
5519;SDS011;2782;52.362;10.012;2023-04-25T05:13:13;2.92;;;1.38;;
5519;SDS011;2782;52.362;10.012;2023-04-25T05:14:13;4.63;;;1.45;;
5519;SDS011;2782;52.362;10.012;2023-04-25T05:15:16;4.95;;;2.20;;
5519;SDS011;2782;52.362;10.012;2023-04-25T05:16:17;5.00;;;1.45;;
5519;SDS011;2782;52.362;10.012;2023-04-25T05:17:18;7.63;;;1.60;;
5519;SDS011;2782;52.362;10.012;2023-04-25T05:18:19;4.30;;;2.30;;
5519;SDS011;2782;52.362;10.012;2023-04-25T05:19:20;13.57;;;2.22;;
5519;SDS011;2782;52.362;10.012;2023-04-25T05:20:21;6.10;;;1.73;;
5519;SDS011;2782;52.362;10.012;2023-04-25T05:21:23;12.23;;;2.22;;
5519;SDS011;2782;52.362;10.012;2023-04-25T05:22:23;6.50;;;2.00;;
5519;SDS011;2782;52.362;10.012;2023-04-25T05:23:25;8.52;;;1.67;;
5519;SDS011;2782;52.362;10.012;2023-04-25T05:24:27;5.38;;;1.75;;
5519;SDS011;2782;52.362;10.012;2023-04-25T05:25:29;6.10;;;1.85;;
5519;SDS011;2782;52.362;10.012;2023-04-25T05:26:29;7.00;;;1.87;;
5519;SDS011;2782;52.362;10.012;2023-04-25T05:27:31;5.53;;;1.90;;
5519;SDS011;2782;52.362;10.012;2023-04-25T05:28:33;13.30;;;2.90;;
5519;SDS011;2782;52.362;10.012;2023-04-25T05:29:34;7.78;;;1.80;;
5519;SDS011;2782;52.362;10.012;2023-04-25T05:30:35;5.67;;;1.70;;
5519;SDS011;2782;52.362;10.012;2023-04-25T05:31:37;4.32;;;1.63;;
5519;SDS011;2782;52.362;10.012;2023-04-25T05:32:38;8.20;;;2.05;;
5519;SDS011;2782;52.362;10.012;2023-04-25T05:33:40;6.95;;;1.80;;
5519;SDS011;2782;52.362;10.012;2023-04-25T05:34:41;6.90;;;1.80;;
5519;SDS011;2782;52.362;10.012;2023-04-25T05:35:43;9.45;;;2.00;;
5519;SDS011;2782;52.362;10.012;2023-04-25T05:36:43;9.93;;;2.30;;
5519;SDS011;2782;52.362;10.012;2023-04-25T05:37:48;10.32;;;1.85;;
5519;SDS011;2782;52.362;10.012;2023-04-25T05:38:48;8.23;;;1.93;;
5519;SDS011;2782;52.362;10.012;2023-04-25T05:39:50;7.50;;;1.90;;
5519;SDS011;2782;52.362;10.012;2023-04-25T05:40:51;4.77;;;2.10;;
5519;SDS011;2782;52.362;10.012;2023-04-25T05:41:52;7.72;;;2.10;;
5519;SDS011;2782;52.362;10.012;2023-04-25T05:42:53;9.13;;;2.50;;
5519;SDS011;2782;52.362;10.012;2023-04-25T05:43:56;10.25;;;1.95;;
5519;SDS011;2782;52.362;10.012;2023-04-25T05:44:56;8.05;;;2.20;;
5519;SDS011;2782;52.362;10.012;2023-04-25T05:45:58;6.72;;;1.67;;
5519;SDS011;2782;52.362;10.012;2023-04-25T05:46:59;5.50;;;1.73;;
5519;SDS011;2782;52.362;10.012;2023-04-25T05:48:00;3.35;;;1.48;;
5519;SDS011;2782;52.362;10.012;2023-04-25T05:49:01;5.17;;;1.60;;
5519;SDS011;2782;52.362;10.012;2023-04-25T05:50:03;5.93;;;1.60;;
5519;SDS011;2782;52.362;10.012;2023-04-25T05:51:04;3.85;;;1.30;;
5519;SDS011;2782;52.362;10.012;2023-04-25T05:52:06;5.03;;;1.50;;
5519;SDS011;2782;52.362;10.012;2023-04-25T05:53:06;8.50;;;1.90;;
5519;SDS011;2782;52.362;10.012;2023-04-25T05:54:09;5.95;;;1.67;;
5519;SDS011;2782;52.362;10.012;2023-04-25T05:55:09;5.30;;;1.63;;
5519;SDS011;2782;52.362;10.012;2023-04-25T05:56:11;3.05;;;1.20;;
5519;SDS011;2782;52.362;10.012;2023-04-25T05:57:18;5.60;;;1.70;;
5519;SDS011;2782;52.362;10.012;2023-04-25T05:58:20;4.53;;;1.58;;
5519;SDS011;2782;52.362;10.012;2023-04-25T05:59:23;5.68;;;1.27;;
5519;SDS011;2782;52.362;10.012;2023-04-25T06:00:25;3.97;;;1.20;;
5519;SDS011;2782;52.362;10.012;2023-04-25T06:01:26;3.20;;;1.20;;
5519;SDS011;2782;52.362;10.012;2023-04-25T06:02:27;5.57;;;1.80;;
5519;SDS011;2782;52.362;10.012;2023-04-25T06:03:28;4.27;;;1.30;;
5519;SDS011;2782;52.362;10.012;2023-04-25T06:04:30;2.40;;;1.10;;
5519;SDS011;2782;52.362;10.012;2023-04-25T06:05:30;3.40;;;1.30;;
5519;SDS011;2782;52.362;10.012;2023-04-25T06:06:32;4.22;;;1.38;;
5519;SDS011;2782;52.362;10.012;2023-04-25T06:07:33;5.30;;;1.30;;
5519;SDS011;2782;52.362;10.012;2023-04-25T06:08:34;5.65;;;1.45;;
5519;SDS011;2782;52.362;10.012;2023-04-25T06:09:35;3.27;;;1.30;;
5519;SDS011;2782;52.362;10.012;2023-04-25T06:10:36;4.13;;;1.45;;
5519;SDS011;2782;52.362;10.012;2023-04-25T06:11:37;3.67;;;1.35;;
5519;SDS011;2782;52.362;10.012;2023-04-25T06:12:39;1.95;;;1.45;;
5519;SDS011;2782;52.362;10.012;2023-04-25T06:13:40;9.90;;;1.60;;
5519;SDS011;2782;52.362;10.012;2023-04-25T06:14:43;4.20;;;1.48;;
5519;SDS011;2782;52.362;10.012;2023-04-25T06:15:43;3.45;;;0.98;;
5519;SDS011;2782;52.362;10.012;2023-04-25T06:16:45;4.97;;;1.67;;
5519;SDS011;2782;52.362;10.012;2023-04-25T06:17:47;3.60;;;1.10;;
5519;SDS011;2782;52.362;10.012;2023-04-25T06:18:48;5.22;;;1.60;;